sensor_id;sensor_type;location;lat;lon;timestamp;temperature;humidity
24402;DHT22;12539;48.808;11.292;2023-04-01T00:00:54;9.20;99.90
24402;DHT22;12539;48.808;11.292;2023-04-01T00:03:21;9.30;99.90
24402;DHT22;12539;48.808;11.292;2023-04-01T00:05:47;9.30;99.90
24402;DHT22;12539;48.808;11.292;2023-04-01T00:08:12;9.30;99.90
24402;DHT22;12539;48.808;11.292;2023-04-01T00:10:39;9.20;99.90
24402;DHT22;12539;48.808;11.292;2023-04-01T00:13:05;9.20;99.90
24402;DHT22;12539;48.808;11.292;2023-04-01T00:15:30;9.20;99.90
24402;DHT22;12539;48.808;11.292;2023-04-01T00:17:56;9.10;99.90
24402;DHT22;12539;48.808;11.292;2023-04-01T00:20:22;9.10;99.90
24402;DHT22;12539;48.808;11.292;2023-04-01T00:22:47;9.10;99.90
24402;DHT22;12539;48.808;11.292;2023-04-01T00:25:15;9.10;99.90
24402;DHT22;12539;48.808;11.292;2023-04-01T00:27:41;9.10;99.90
24402;DHT22;12539;48.808;11.292;2023-04-01T00:30:07;9.10;99.90
24402;DHT22;12539;48.808;11.292;2023-04-01T00:32:33;9.00;99.90
24402;DHT22;12539;48.808;11.292;2023-04-01T00:34:59;9.10;99.90
24402;DHT22;12539;48.808;11.292;2023-04-01T00:37:25;9.10;99.90
24402;DHT22;12539;48.808;11.292;2023-04-01T00:39:51;9.10;99.90
24402;DHT22;12539;48.808;11.292;2023-04-01T00:42:16;9.10;99.90
24402;DHT22;12539;48.808;11.292;2023-04-01T00:44:42;9.10;99.90
24402;DHT22;12539;48.808;11.292;2023-04-01T00:47:07;9.00;99.90
24402;DHT22;12539;48.808;11.292;2023-04-01T00:49:34;9.00;99.90
24402;DHT22;12539;48.808;11.292;2023-04-01T00:52:01;9.00;99.90
24402;DHT22;12539;48.808;11.292;2023-04-01T00:54:28;9.00;99.90
24402;DHT22;12539;48.808;11.292;2023-04-01T00:57:17;9.00;99.90
24402;DHT22;12539;48.808;11.292;2023-04-01T00:59:42;8.90;99.90
24402;DHT22;12539;48.808;11.292;2023-04-01T01:02:08;8.90;99.90
24402;DHT22;12539;48.808;11.292;2023-04-01T01:04:35;8.90;99.90
24402;DHT22;12539;48.808;11.292;2023-04-01T01:17:32;8.70;99.90
24402;DHT22;12539;48.808;11.292;2023-04-01T01:22:43;8.60;99.90
24402;DHT22;12539;48.808;11.292;2023-04-01T01:26:08;8.60;99.90
24402;DHT22;12539;48.808;11.292;2023-04-01T01:35:40;8.40;99.90
24402;DHT22;12539;48.808;11.292;2023-04-01T01:38:10;8.40;99.90
24402;DHT22;12539;48.808;11.292;2023-04-01T01:40:35;8.30;99.90
24402;DHT22;12539;48.808;11.292;2023-04-01T01:43:06;8.30;99.90
24402;DHT22;12539;48.808;11.292;2023-04-01T01:45:34;8.30;99.90
24402;DHT22;12539;48.808;11.292;2023-04-01T01:48:01;8.20;99.90
24402;DHT22;12539;48.808;11.292;2023-04-01T01:50:27;8.20;99.90
24402;DHT22;12539;48.808;11.292;2023-04-01T01:53:04;8.20;99.90
24402;DHT22;12539;48.808;11.292;2023-04-01T01:55:31;8.20;99.90
24402;DHT22;12539;48.808;11.292;2023-04-01T01:57:58;8.20;99.90
24402;DHT22;12539;48.808;11.292;2023-04-01T02:00:24;8.20;99.90
24402;DHT22;12539;48.808;11.292;2023-04-01T02:02:50;8.10;99.90
24402;DHT22;12539;48.808;11.292;2023-04-01T02:05:17;8.10;99.90
24402;DHT22;12539;48.808;11.292;2023-04-01T02:07:45;8.10;99.90
24402;DHT22;12539;48.808;11.292;2023-04-01T02:10:12;8.10;99.90
24402;DHT22;12539;48.808;11.292;2023-04-01T02:12:38;8.10;99.90
24402;DHT22;12539;48.808;11.292;2023-04-01T02:15:05;8.20;99.90
24402;DHT22;12539;48.808;11.292;2023-04-01T02:17:32;8.10;99.90
24402;DHT22;12539;48.808;11.292;2023-04-01T02:20:00;8.20;99.90
24402;DHT22;12539;48.808;11.292;2023-04-01T02:22:33;8.20;99.90
24402;DHT22;12539;48.808;11.292;2023-04-01T02:25:01;8.30;99.90
24402;DHT22;12539;48.808;11.292;2023-04-01T02:27:28;8.30;99.90
24402;DHT22;12539;48.808;11.292;2023-04-01T02:29:53;8.30;99.90
24402;DHT22;12539;48.808;11.292;2023-04-01T02:32:19;8.30;99.90
24402;DHT22;12539;48.808;11.292;2023-04-01T02:34:45;8.20;99.90
24402;DHT22;12539;48.808;11.292;2023-04-01T02:37:11;8.20;99.90
24402;DHT22;12539;48.808;11.292;2023-04-01T02:39:38;8.20;99.90
24402;DHT22;12539;48.808;11.292;2023-04-01T02:42:03;8.20;99.90
24402;DHT22;12539;48.808;11.292;2023-04-01T02:44:29;8.20;99.90
24402;DHT22;12539;48.808;11.292;2023-04-01T02:46:54;8.30;99.90
24402;DHT22;12539;48.808;11.292;2023-04-01T02:49:20;8.40;99.90
24402;DHT22;12539;48.808;11.292;2023-04-01T02:51:45;8.30;99.90
24402;DHT22;12539;48.808;11.292;2023-04-01T02:56:58;8.20;99.90
24402;DHT22;12539;48.808;11.292;2023-04-01T02:59:24;8.20;99.90
24402;DHT22;12539;48.808;11.292;2023-04-01T03:01:49;8.20;99.90
24402;DHT22;12539;48.808;11.292;2023-04-01T03:04:15;8.20;99.90
24402;DHT22;12539;48.808;11.292;2023-04-01T03:06:40;8.30;99.90
24402;DHT22;12539;48.808;11.292;2023-04-01T03:09:06;8.20;99.90
24402;DHT22;12539;48.808;11.292;2023-04-01T03:11:31;8.10;99.90
24402;DHT22;12539;48.808;11.292;2023-04-01T03:13:57;8.10;99.90
24402;DHT22;12539;48.808;11.292;2023-04-01T03:16:22;8.00;99.90
24402;DHT22;12539;48.808;11.292;2023-04-01T03:18:48;7.90;99.90
24402;DHT22;12539;48.808;11.292;2023-04-01T03:21:17;7.90;99.90
24402;DHT22;12539;48.808;11.292;2023-04-01T03:23:43;7.90;99.90
24402;DHT22;12539;48.808;11.292;2023-04-01T03:26:08;7.80;99.90
24402;DHT22;12539;48.808;11.292;2023-04-01T03:28:34;7.90;99.90
24402;DHT22;12539;48.808;11.292;2023-04-01T03:31:00;7.90;99.90
24402;DHT22;12539;48.808;11.292;2023-04-01T03:33:25;8.00;99.90
24402;DHT22;12539;48.808;11.292;2023-04-01T03:35:50;8.10;99.90
24402;DHT22;12539;48.808;11.292;2023-04-01T03:38:17;8.10;99.90
24402;DHT22;12539;48.808;11.292;2023-04-01T03:40:43;8.20;99.90
24402;DHT22;12539;48.808;11.292;2023-04-01T03:43:08;8.20;99.90
24402;DHT22;12539;48.808;11.292;2023-04-01T03:45:35;8.30;99.90
24402;DHT22;12539;48.808;11.292;2023-04-01T03:48:01;8.30;99.90
24402;DHT22;12539;48.808;11.292;2023-04-01T03:50:26;8.40;99.90
24402;DHT22;12539;48.808;11.292;2023-04-01T03:52:52;8.50;99.90
24402;DHT22;12539;48.808;11.292;2023-04-01T03:55:17;8.50;99.90
24402;DHT22;12539;48.808;11.292;2023-04-01T03:57:43;8.50;99.90
24402;DHT22;12539;48.808;11.292;2023-04-01T04:00:09;8.30;99.90
24402;DHT22;12539;48.808;11.292;2023-04-01T04:02:35;8.30;99.90
24402;DHT22;12539;48.808;11.292;2023-04-01T04:05:01;8.20;99.90
24402;DHT22;12539;48.808;11.292;2023-04-01T04:07:27;8.10;99.90
24402;DHT22;12539;48.808;11.292;2023-04-01T04:09:52;8.10;99.90
24402;DHT22;12539;48.808;11.292;2023-04-01T04:12:18;8.00;99.90
24402;DHT22;12539;48.808;11.292;2023-04-01T04:14:43;7.90;99.90
24402;DHT22;12539;48.808;11.292;2023-04-01T04:17:12;7.90;99.90
24402;DHT22;12539;48.808;11.292;2023-04-01T04:19:41;7.80;99.90
24402;DHT22;12539;48.808;11.292;2023-04-01T04:22:07;7.90;99.90
24402;DHT22;12539;48.808;11.292;2023-04-01T04:24:36;7.90;99.90
24402;DHT22;12539;48.808;11.292;2023-04-01T04:27:01;8.00;99.90
24402;DHT22;12539;48.808;11.292;2023-04-01T04:29:27;8.00;99.90
24402;DHT22;12539;48.808;11.292;2023-04-01T04:31:53;8.10;99.90
24402;DHT22;12539;48.808;11.292;2023-04-01T04:34:18;8.20;99.90
24402;DHT22;12539;48.808;11.292;2023-04-01T04:36:44;8.20;99.90
24402;DHT22;12539;48.808;11.292;2023-04-01T04:39:10;8.20;99.90
24402;DHT22;12539;48.808;11.292;2023-04-01T04:41:36;8.20;99.90
24402;DHT22;12539;48.808;11.292;2023-04-01T04:44:02;8.20;99.90
24402;DHT22;12539;48.808;11.292;2023-04-01T04:46:28;8.20;99.90
24402;DHT22;12539;48.808;11.292;2023-04-01T04:48:53;8.20;99.90
24402;DHT22;12539;48.808;11.292;2023-04-01T04:51:19;8.20;99.90
24402;DHT22;12539;48.808;11.292;2023-04-01T04:53:45;8.30;99.90
24402;DHT22;12539;48.808;11.292;2023-04-01T04:56:11;8.30;99.90
24402;DHT22;12539;48.808;11.292;2023-04-01T04:58:37;8.20;99.90
24402;DHT22;12539;48.808;11.292;2023-04-01T05:01:10;8.30;99.90
24402;DHT22;12539;48.808;11.292;2023-04-01T05:03:36;8.30;99.90
24402;DHT22;12539;48.808;11.292;2023-04-01T05:06:02;8.30;99.90
24402;DHT22;12539;48.808;11.292;2023-04-01T05:08:27;8.30;99.90
24402;DHT22;12539;48.808;11.292;2023-04-01T05:10:53;8.40;99.90
24402;DHT22;12539;48.808;11.292;2023-04-01T05:13:18;8.40;99.90
24402;DHT22;12539;48.808;11.292;2023-04-01T05:15:44;8.40;99.90
24402;DHT22;12539;48.808;11.292;2023-04-01T05:18:09;8.40;99.90
24402;DHT22;12539;48.808;11.292;2023-04-01T05:20:35;8.50;99.90
24402;DHT22;12539;48.808;11.292;2023-04-01T05:23:01;8.50;99.90
24402;DHT22;12539;48.808;11.292;2023-04-01T05:25:26;8.60;99.90
24402;DHT22;12539;48.808;11.292;2023-04-01T05:27:52;8.60;99.90
24402;DHT22;12539;48.808;11.292;2023-04-01T05:30:18;8.60;99.90
24402;DHT22;12539;48.808;11.292;2023-04-01T05:35:30;8.60;99.90
24402;DHT22;12539;48.808;11.292;2023-04-01T05:37:55;8.70;99.90
24402;DHT22;12539;48.808;11.292;2023-04-01T05:40:21;8.70;99.90
24402;DHT22;12539;48.808;11.292;2023-04-01T05:42:46;8.70;99.90
24402;DHT22;12539;48.808;11.292;2023-04-01T05:45:12;8.80;99.90
24402;DHT22;12539;48.808;11.292;2023-04-01T05:47:40;8.80;99.90
24402;DHT22;12539;48.808;11.292;2023-04-01T05:50:08;8.80;99.90
24402;DHT22;12539;48.808;11.292;2023-04-01T05:52:33;8.80;99.90
24402;DHT22;12539;48.808;11.292;2023-04-01T05:54:59;8.80;99.90
24402;DHT22;12539;48.808;11.292;2023-04-01T05:57:25;8.90;99.90
24402;DHT22;12539;48.808;11.292;2023-04-01T05:59:51;8.90;99.90
24402;DHT22;12539;48.808;11.292;2023-04-01T06:02:17;8.90;99.90
24402;DHT22;12539;48.808;11.292;2023-04-01T06:04:43;8.90;99.90
24402;DHT22;12539;48.808;11.292;2023-04-01T06:07:13;9.00;99.90
24402;DHT22;12539;48.808;11.292;2023-04-01T06:09:39;9.00;99.90
24402;DHT22;12539;48.808;11.292;2023-04-01T06:32:57;9.40;99.90
24402;DHT22;12539;48.808;11.292;2023-04-01T06:35:31;9.50;99.90
24402;DHT22;12539;48.808;11.292;2023-04-01T06:40:52;9.70;99.90
24402;DHT22;12539;48.808;11.292;2023-04-01T06:48:49;10.00;99.90
24402;DHT22;12539;48.808;11.292;2023-04-01T06:56:17;10.30;99.90
24402;DHT22;12539;48.808;11.292;2023-04-01T07:01:12;10.40;99.90
24402;DHT22;12539;48.808;11.292;2023-04-01T07:06:25;10.80;99.90
24402;DHT22;12539;48.808;11.292;2023-04-01T07:08:53;11.00;99.90
24402;DHT22;12539;48.808;11.292;2023-04-01T07:11:26;11.00;99.90
24402;DHT22;12539;48.808;11.292;2023-04-01T07:13:55;11.10;99.90
24402;DHT22;12539;48.808;11.292;2023-04-01T07:16:44;11.10;99.90
24402;DHT22;12539;48.808;11.292;2023-04-01T07:24:49;11.30;99.90
24402;DHT22;12539;48.808;11.292;2023-04-01T07:27:15;11.60;99.90
24402;DHT22;12539;48.808;11.292;2023-04-01T07:29:41;11.80;99.30
24402;DHT22;12539;48.808;11.292;2023-04-01T07:34:48;12.00;97.40
24402;DHT22;12539;48.808;11.292;2023-04-01T07:42:41;11.90;96.90
24402;DHT22;12539;48.808;11.292;2023-04-01T07:50:34;12.40;94.80
24402;DHT22;12539;48.808;11.292;2023-04-01T08:01:16;12.60;94.10
24402;DHT22;12539;48.808;11.292;2023-04-01T08:06:19;12.60;92.10
24402;DHT22;12539;48.808;11.292;2023-04-01T08:09:00;12.70;92.80
24402;DHT22;12539;48.808;11.292;2023-04-01T08:16:45;13.00;90.80
24402;DHT22;12539;48.808;11.292;2023-04-01T08:21:51;13.10;90.80
24402;DHT22;12539;48.808;11.292;2023-04-01T08:24:20;13.10;89.10
24402;DHT22;12539;48.808;11.292;2023-04-01T08:26:48;13.00;88.70
24402;DHT22;12539;48.808;11.292;2023-04-01T08:29:18;12.90;89.90
24402;DHT22;12539;48.808;11.292;2023-04-01T08:34:14;13.20;88.50
24402;DHT22;12539;48.808;11.292;2023-04-01T08:36:42;13.20;88.10
24402;DHT22;12539;48.808;11.292;2023-04-01T08:39:51;13.30;88.90
24402;DHT22;12539;48.808;11.292;2023-04-01T08:49:31;13.80;87.60
24402;DHT22;12539;48.808;11.292;2023-04-01T08:59:53;14.20;84.30
24402;DHT22;12539;48.808;11.292;2023-04-01T09:07:55;14.10;83.60
24402;DHT22;12539;48.808;11.292;2023-04-01T09:10:47;14.10;84.50
24402;DHT22;12539;48.808;11.292;2023-04-01T09:21:34;13.80;82.10
24402;DHT22;12539;48.808;11.292;2023-04-01T09:27:02;13.50;83.00
24402;DHT22;12539;48.808;11.292;2023-04-01T09:37:21;13.10;84.00
24402;DHT22;12539;48.808;11.292;2023-04-01T09:39:53;13.10;83.90
24402;DHT22;12539;48.808;11.292;2023-04-01T09:44:57;13.00;83.90
24402;DHT22;12539;48.808;11.292;2023-04-01T09:52:24;12.70;84.70
24402;DHT22;12539;48.808;11.292;2023-04-01T10:07:55;12.80;89.00
24402;DHT22;12539;48.808;11.292;2023-04-01T10:10:34;13.00;88.60
24402;DHT22;12539;48.808;11.292;2023-04-01T10:13:10;13.20;89.20
24402;DHT22;12539;48.808;11.292;2023-04-01T10:26:01;14.10;84.70
24402;DHT22;12539;48.808;11.292;2023-04-01T10:28:54;14.20;84.50
24402;DHT22;12539;48.808;11.292;2023-04-01T10:36:57;13.80;82.00
24402;DHT22;12539;48.808;11.292;2023-04-01T10:42:17;13.50;85.60
24402;DHT22;12539;48.808;11.292;2023-04-01T11:12:58;12.00;92.90
24402;DHT22;12539;48.808;11.292;2023-04-01T11:26:46;11.80;95.50
24402;DHT22;12539;48.808;11.292;2023-04-01T11:47:26;11.90;96.80
24402;DHT22;12539;48.808;11.292;2023-04-01T11:52:47;11.80;95.80
24402;DHT22;12539;48.808;11.292;2023-04-01T11:55:32;11.70;97.00
24402;DHT22;12539;48.808;11.292;2023-04-01T12:08:37;11.90;98.10
24402;DHT22;12539;48.808;11.292;2023-04-01T12:21:25;11.90;98.70
24402;DHT22;12539;48.808;11.292;2023-04-01T12:39:57;12.50;99.30
24402;DHT22;12539;48.808;11.292;2023-04-01T12:47:44;12.70;98.40
24402;DHT22;12539;48.808;11.292;2023-04-01T13:03:06;12.80;96.90
24402;DHT22;12539;48.808;11.292;2023-04-01T13:10:38;12.70;97.20
24402;DHT22;12539;48.808;11.292;2023-04-01T13:25:36;13.10;97.00
24402;DHT22;12539;48.808;11.292;2023-04-01T13:28:25;13.10;97.40
24402;DHT22;12539;48.808;11.292;2023-04-01T13:36:36;13.40;97.40
24402;DHT22;12539;48.808;11.292;2023-04-01T13:42:33;13.30;96.20
24402;DHT22;12539;48.808;11.292;2023-04-01T13:44:37;13.20;96.10
24402;DHT22;12539;48.808;11.292;2023-04-01T13:47:24;13.10;97.00
24402;DHT22;12539;48.808;11.292;2023-04-01T13:55:16;13.10;96.80
24402;DHT22;12539;48.808;11.292;2023-04-01T14:00:25;13.00;97.40
24402;DHT22;12539;48.808;11.292;2023-04-01T14:08:39;13.00;97.00
24402;DHT22;12539;48.808;11.292;2023-04-01T14:19:03;13.20;96.70
24402;DHT22;12539;48.808;11.292;2023-04-01T14:21:35;13.20;97.40
24402;DHT22;12539;48.808;11.292;2023-04-01T14:24:07;13.30;97.50
24402;DHT22;12539;48.808;11.292;2023-04-01T14:26:50;13.30;96.90
24402;DHT22;12539;48.808;11.292;2023-04-01T14:29:33;13.30;96.80
24402;DHT22;12539;48.808;11.292;2023-04-01T14:40:33;13.70;96.80
24402;DHT22;12539;48.808;11.292;2023-04-01T14:51:10;13.70;94.90
24402;DHT22;12539;48.808;11.292;2023-04-01T14:53:44;13.70;95.80
24402;DHT22;12539;48.808;11.292;2023-04-01T14:56:34;13.80;95.50
24402;DHT22;12539;48.808;11.292;2023-04-01T14:59:00;13.70;95.50
24402;DHT22;12539;48.808;11.292;2023-04-01T15:01:35;13.60;95.30
24402;DHT22;12539;48.808;11.292;2023-04-01T15:09:48;13.20;96.20
24402;DHT22;12539;48.808;11.292;2023-04-01T15:12:38;13.20;95.80
24402;DHT22;12539;48.808;11.292;2023-04-01T15:15:13;13.10;95.50
24402;DHT22;12539;48.808;11.292;2023-04-01T15:30:54;12.60;97.20
24402;DHT22;12539;48.808;11.292;2023-04-01T15:41:16;12.20;98.10
24402;DHT22;12539;48.808;11.292;2023-04-01T15:43:43;12.20;98.50
24402;DHT22;12539;48.808;11.292;2023-04-01T15:46:54;12.30;99.10
24402;DHT22;12539;48.808;11.292;2023-04-01T15:48:57;12.30;99.50
24402;DHT22;12539;48.808;11.292;2023-04-01T15:54:06;12.30;98.90
24402;DHT22;12539;48.808;11.292;2023-04-01T16:07:10;11.70;99.90
24402;DHT22;12539;48.808;11.292;2023-04-01T16:32:21;11.80;99.90
24402;DHT22;12539;48.808;11.292;2023-04-01T16:34:56;11.80;99.90
24402;DHT22;12539;48.808;11.292;2023-04-01T16:42:35;11.80;99.90
24402;DHT22;12539;48.808;11.292;2023-04-01T16:47:40;11.80;99.90
24402;DHT22;12539;48.808;11.292;2023-04-01T16:55:17;11.60;99.90
24402;DHT22;12539;48.808;11.292;2023-04-01T17:02:49;11.50;99.90
24402;DHT22;12539;48.808;11.292;2023-04-01T17:05:15;11.50;99.90
24402;DHT22;12539;48.808;11.292;2023-04-01T17:28:44;11.00;99.90
24402;DHT22;12539;48.808;11.292;2023-04-01T17:36:40;11.00;99.90
24402;DHT22;12539;48.808;11.292;2023-04-01T17:39:16;11.00;99.90
24402;DHT22;12539;48.808;11.292;2023-04-01T17:57:10;11.00;99.90
24402;DHT22;12539;48.808;11.292;2023-04-01T18:23:43;10.90;99.90
24402;DHT22;12539;48.808;11.292;2023-04-01T18:26:13;10.90;99.90
24402;DHT22;12539;48.808;11.292;2023-04-01T18:28:47;10.90;99.90
24402;DHT22;12539;48.808;11.292;2023-04-01T18:31:16;10.80;99.90
24402;DHT22;12539;48.808;11.292;2023-04-01T18:36:15;10.80;99.90
24402;DHT22;12539;48.808;11.292;2023-04-01T18:38:55;10.80;99.90
24402;DHT22;12539;48.808;11.292;2023-04-01T18:41:25;10.80;99.90
24402;DHT22;12539;48.808;11.292;2023-04-01T18:49:08;10.70;99.90
24402;DHT22;12539;48.808;11.292;2023-04-01T18:52:39;10.70;99.90
24402;DHT22;12539;48.808;11.292;2023-04-01T18:54:32;10.70;99.90
24402;DHT22;12539;48.808;11.292;2023-04-01T18:57:01;10.60;99.90
24402;DHT22;12539;48.808;11.292;2023-04-01T18:59:29;10.70;99.90
24402;DHT22;12539;48.808;11.292;2023-04-01T19:02:13;10.70;99.90
24402;DHT22;12539;48.808;11.292;2023-04-01T19:04:41;10.60;99.90
24402;DHT22;12539;48.808;11.292;2023-04-01T19:07:31;10.60;99.90
24402;DHT22;12539;48.808;11.292;2023-04-01T19:27:44;10.20;99.90
24402;DHT22;12539;48.808;11.292;2023-04-01T19:30:45;10.30;99.90
24402;DHT22;12539;48.808;11.292;2023-04-01T19:35:38;10.30;99.90
24402;DHT22;12539;48.808;11.292;2023-04-01T19:40:44;10.20;99.90
24402;DHT22;12539;48.808;11.292;2023-04-01T19:46:17;10.10;99.90
24402;DHT22;12539;48.808;11.292;2023-04-01T19:49:01;10.20;99.90
24402;DHT22;12539;48.808;11.292;2023-04-01T19:51:42;10.20;99.90
24402;DHT22;12539;48.808;11.292;2023-04-01T19:56:47;10.30;99.90
24402;DHT22;12539;48.808;11.292;2023-04-01T19:59:26;10.30;99.90
24402;DHT22;12539;48.808;11.292;2023-04-01T20:04:29;10.30;99.90
24402;DHT22;12539;48.808;11.292;2023-04-01T20:14:26;10.30;99.90
24402;DHT22;12539;48.808;11.292;2023-04-01T20:17:02;10.30;99.90
24402;DHT22;12539;48.808;11.292;2023-04-01T20:19:40;10.30;99.90
24402;DHT22;12539;48.808;11.292;2023-04-01T20:22:16;10.30;99.90
24402;DHT22;12539;48.808;11.292;2023-04-01T20:24:47;10.30;99.90
24402;DHT22;12539;48.808;11.292;2023-04-01T20:35:16;10.40;99.90
24402;DHT22;12539;48.808;11.292;2023-04-01T20:42:51;10.40;99.90
24402;DHT22;12539;48.808;11.292;2023-04-01T20:45:31;10.40;99.90
24402;DHT22;12539;48.808;11.292;2023-04-01T20:55:55;10.30;99.90
24402;DHT22;12539;48.808;11.292;2023-04-01T21:11:35;10.10;99.90
24402;DHT22;12539;48.808;11.292;2023-04-01T21:14:25;10.20;99.90
24402;DHT22;12539;48.808;11.292;2023-04-01T21:19:25;10.10;99.90
24402;DHT22;12539;48.808;11.292;2023-04-01T21:22:15;10.20;99.90
24402;DHT22;12539;48.808;11.292;2023-04-01T21:32:25;10.20;99.90
24402;DHT22;12539;48.808;11.292;2023-04-01T21:37:26;10.00;99.90
24402;DHT22;12539;48.808;11.292;2023-04-01T21:44:54;9.60;99.90
24402;DHT22;12539;48.808;11.292;2023-04-01T21:53:03;9.30;99.90
24402;DHT22;12539;48.808;11.292;2023-04-01T22:04:10;9.10;99.90
24402;DHT22;12539;48.808;11.292;2023-04-01T22:06:17;9.00;99.90
24402;DHT22;12539;48.808;11.292;2023-04-01T22:14:01;9.00;99.90
24402;DHT22;12539;48.808;11.292;2023-04-01T22:19:17;9.30;99.90
24402;DHT22;12539;48.808;11.292;2023-04-01T22:24:37;9.40;99.90
24402;DHT22;12539;48.808;11.292;2023-04-01T22:27:11;9.50;99.90
24402;DHT22;12539;48.808;11.292;2023-04-01T22:29:52;9.40;99.90
24402;DHT22;12539;48.808;11.292;2023-04-01T22:32:29;9.40;99.90
24402;DHT22;12539;48.808;11.292;2023-04-01T22:37:53;9.40;99.90
24402;DHT22;12539;48.808;11.292;2023-04-01T22:40:25;9.40;99.90
24402;DHT22;12539;48.808;11.292;2023-04-01T22:45:27;9.60;99.90
24402;DHT22;12539;48.808;11.292;2023-04-01T22:53:29;9.70;99.90
24402;DHT22;12539;48.808;11.292;2023-04-01T22:55:59;9.60;99.90
24402;DHT22;12539;48.808;11.292;2023-04-01T22:58:30;9.60;99.90
24402;DHT22;12539;48.808;11.292;2023-04-01T23:00:56;9.50;99.90
24402;DHT22;12539;48.808;11.292;2023-04-01T23:03:30;9.50;99.90
24402;DHT22;12539;48.808;11.292;2023-04-01T23:06:00;9.60;99.90
24402;DHT22;12539;48.808;11.292;2023-04-01T23:10:56;9.60;99.90
24402;DHT22;12539;48.808;11.292;2023-04-01T23:13:25;9.70;99.90
24402;DHT22;12539;48.808;11.292;2023-04-01T23:15:52;9.70;99.90
24402;DHT22;12539;48.808;11.292;2023-04-01T23:18:21;9.60;99.90
24402;DHT22;12539;48.808;11.292;2023-04-01T23:23:42;9.70;99.90
24402;DHT22;12539;48.808;11.292;2023-04-01T23:26:29;9.70;99.90
24402;DHT22;12539;48.808;11.292;2023-04-01T23:28:56;9.60;99.90
24402;DHT22;12539;48.808;11.292;2023-04-01T23:33:53;9.60;99.90
24402;DHT22;12539;48.808;11.292;2023-04-01T23:36:20;9.60;99.90
24402;DHT22;12539;48.808;11.292;2023-04-01T23:38:46;9.60;99.90
24402;DHT22;12539;48.808;11.292;2023-04-01T23:41:17;9.60;99.90
24402;DHT22;12539;48.808;11.292;2023-04-01T23:43:45;9.60;99.90
24402;DHT22;12539;48.808;11.292;2023-04-01T23:46:14;9.60;99.90
24402;DHT22;12539;48.808;11.292;2023-04-01T23:48:41;9.60;99.90
24402;DHT22;12539;48.808;11.292;2023-04-01T23:51:21;9.60;99.90
24402;DHT22;12539;48.808;11.292;2023-04-01T23:53:47;9.70;99.90
24402;DHT22;12539;48.808;11.292;2023-04-01T23:56:21;9.60;99.90
24402;DHT22;12539;48.808;11.292;2023-04-01T23:58:48;9.70;99.90
